createdAt,value
2023-06-29T00:02:10.669Z,100599.09
2023-06-29T00:04:37.181Z,100593.72
2023-06-29T00:07:05.155Z,100596.41
2023-06-29T00:09:32.936Z,100599.09
2023-06-29T00:11:59.424Z,100593.72
2023-06-29T00:14:25.947Z,100585.81
2023-06-29T00:16:52.437Z,100592.19
2023-06-29T00:19:19.019Z,100580.44
2023-06-29T00:21:45.510Z,100583.13
2023-06-29T00:24:13.249Z,100584.97
2023-06-29T00:26:39.720Z,100582.28
2023-06-29T00:29:06.723Z,100584.97
2023-06-29T00:31:33.235Z,100578.00
2023-06-29T00:33:59.795Z,100574.47
2023-06-29T00:36:26.277Z,100578.84
2023-06-29T00:38:52.734Z,100573.47
2023-06-29T00:41:20.702Z,100572.63
2023-06-29T00:43:47.211Z,100576.16
2023-06-29T00:46:16.194Z,100559.19
2023-06-29T00:48:42.787Z,100556.50
2023-06-29T00:51:09.431Z,100562.88
2023-06-29T00:53:36.064Z,100553.81
2023-06-29T00:56:03.018Z,100552.97
2023-06-29T00:58:31.827Z,100550.41
2023-06-29T01:00:58.381Z,100539.66
2023-06-29T01:03:25.139Z,100543.31
2023-06-29T01:05:57.181Z,100543.31
2023-06-29T01:08:28.694Z,100538.78
2023-06-29T01:10:56.444Z,100532.53
2023-06-29T01:13:24.309Z,100524.47
2023-06-29T01:15:53.618Z,100528.16
2023-06-29T01:18:20.992Z,100530.84
2023-06-29T01:20:49.442Z,100529.16
2023-06-29T01:23:24.585Z,100521.22
2023-06-29T01:25:52.547Z,100522.91
2023-06-29T01:28:19.057Z,100519.25
2023-06-29T01:30:45.501Z,100517.53
2023-06-29T01:33:12.259Z,100515.84
2023-06-29T01:35:38.770Z,100515.00
2023-06-29T01:38:11.354Z,100513.16
2023-06-29T01:40:41.499Z,100516.00
2023-06-29T01:43:09.360Z,100510.47
2023-06-29T01:45:37.342Z,100512.31
2023-06-29T01:48:04.218Z,100512.47
2023-06-29T01:50:31.252Z,100507.94
2023-06-29T01:52:57.725Z,100513.44
2023-06-29T01:55:25.064Z,100506.22
2023-06-29T01:57:51.593Z,100506.94
2023-06-29T02:00:19.567Z,100501.72
2023-06-29T02:02:46.172Z,100495.59
2023-06-29T02:05:13.084Z,100496.44
2023-06-29T02:07:39.542Z,100501.72
2023-06-29T02:10:09.416Z,100493.75
2023-06-29T02:12:38.472Z,100499.13
2023-06-29T02:15:05.306Z,100500.97
2023-06-29T02:17:33.256Z,100495.59
2023-06-29T02:19:59.783Z,100491.22
2023-06-29T02:22:26.276Z,100491.22
2023-06-29T02:24:52.748Z,100491.22
2023-06-29T02:27:19.320Z,100486.81
2023-06-29T02:29:45.767Z,100488.53
2023-06-29T02:32:12.254Z,100475.09
2023-06-29T02:34:40.070Z,100476.06
2023-06-29T02:37:06.570Z,100471.41
2023-06-29T02:39:33.024Z,100463.50
2023-06-29T02:41:59.468Z,100452.59
2023-06-29T02:44:25.973Z,100463.50
2023-06-29T02:46:52.408Z,100467.03
2023-06-29T02:49:19.090Z,100460.81
2023-06-29T02:51:46.869Z,100470.69
2023-06-29T02:54:13.301Z,100470.69
2023-06-29T02:56:39.829Z,100477.06
2023-06-29T02:59:06.386Z,100479.75
2023-06-29T03:01:33.035Z,100465.47
2023-06-29T03:03:59.671Z,100463.78
2023-06-29T03:06:26.159Z,100464.63
2023-06-29T03:08:54.111Z,100451.19
2023-06-29T03:11:20.621Z,100458.41
2023-06-29T03:13:47.148Z,100451.19
2023-06-29T03:16:13.688Z,100441.28
2023-06-29T03:18:40.168Z,100438.75
2023-06-29T03:21:16.247Z,100439.69
2023-06-29T03:23:44.703Z,100438.75
2023-06-29T03:26:12.524Z,100435.31
2023-06-29T03:28:39.004Z,100437.03
2023-06-29T03:31:05.877Z,100445.09
2023-06-29T03:33:32.438Z,100445.94
2023-06-29T03:35:58.918Z,100446.06
2023-06-29T03:38:25.389Z,100442.53
2023-06-29T03:40:51.894Z,100443.41
2023-06-29T03:43:19.676Z,100444.22
2023-06-29T03:45:46.303Z,100446.94
2023-06-29T03:48:13.112Z,100436.31
2023-06-29T03:50:39.762Z,100433.63
2023-06-29T03:53:06.314Z,100436.31
2023-06-29T03:55:32.818Z,100432.75
2023-06-29T03:57:59.295Z,100434.59
2023-06-29T04:00:27.088Z,100438.13
2023-06-29T04:02:53.734Z,100436.44
2023-06-29T04:05:20.323Z,100441.69
2023-06-29T04:07:46.847Z,100435.44
2023-06-29T04:10:13.366Z,100440.81
2023-06-29T04:12:39.913Z,100443.66
2023-06-29T04:15:07.426Z,100449.75
2023-06-29T04:17:35.181Z,100439.13
2023-06-29T04:20:01.731Z,100437.44
2023-06-29T04:22:28.229Z,100449.03
2023-06-29T04:24:54.756Z,100456.09
2023-06-29T04:27:21.231Z,100451.56
2023-06-29T04:29:47.727Z,100457.81
2023-06-29T04:32:14.225Z,100455.13
2023-06-29T04:34:42.259Z,100449.03
2023-06-29T04:37:08.764Z,100456.09
2023-06-29T04:39:35.236Z,100457.81
2023-06-29T04:42:02.877Z,100455.97
2023-06-29T04:44:29.855Z,100457.69
2023-06-29T04:46:56.288Z,100452.28
2023-06-29T04:49:22.786Z,100454.00
2023-06-29T04:51:50.625Z,100444.97
2023-06-29T04:54:17.112Z,100441.28
2023-06-29T04:56:43.712Z,100441.28
2023-06-29T04:59:10.142Z,100442.84
2023-06-29T05:01:36.673Z,100444.69
2023-06-29T05:04:03.349Z,100442.84
2023-06-29T05:06:29.995Z,100448.22
2023-06-29T05:08:57.766Z,100448.91
2023-06-29T05:11:24.251Z,100447.06
2023-06-29T05:13:50.777Z,100443.41
2023-06-29T05:16:17.288Z,100448.38
2023-06-29T05:18:43.780Z,100447.38
2023-06-29T05:21:10.197Z,100452.16
2023-06-29T05:23:36.672Z,100456.13
2023-06-29T05:26:04.460Z,100459.25
2023-06-29T05:28:31.028Z,100460.25
2023-06-29T05:30:57.602Z,100458.66
2023-06-29T05:33:24.119Z,100462.19
2023-06-29T05:35:50.596Z,100468.00
2023-06-29T05:38:17.103Z,100470.41
2023-06-29T05:40:44.136Z,100461.38
2023-06-29T05:43:12.172Z,100469.31
2023-06-29T05:45:38.864Z,100456.69
2023-06-29T05:48:05.812Z,100468.44
2023-06-29T05:50:32.341Z,100462.81
2023-06-29T05:52:58.851Z,100466.47
2023-06-29T05:55:25.410Z,100461.97
2023-06-29T05:57:51.869Z,100461.81
2023-06-29T06:00:20.211Z,100461.81
2023-06-29T06:02:46.774Z,100460.13
2023-06-29T06:05:13.371Z,100460.97
2023-06-29T06:07:40.117Z,100455.72
2023-06-29T06:10:07.094Z,100450.06
2023-06-29T06:12:33.566Z,100452.66
2023-06-29T06:15:00.051Z,100455.06
2023-06-29T06:17:28.060Z,100459.44
2023-06-29T06:19:55.489Z,100456.88
2023-06-29T06:22:21.930Z,100460.44
2023-06-29T06:24:48.452Z,100452.50
2023-06-29T06:27:14.959Z,100447.38
2023-06-29T06:29:41.430Z,100461.81
2023-06-29T06:32:08.214Z,100466.94
2023-06-29T06:34:36.143Z,100468.19
2023-06-29T06:37:02.794Z,100465.66
2023-06-29T06:39:30.272Z,100459.44
2023-06-29T06:41:56.830Z,100466.94
2023-06-29T06:44:23.295Z,100460.44
2023-06-29T06:46:49.754Z,100466.94
2023-06-29T06:49:16.379Z,100463.97
2023-06-29T06:51:44.289Z,100458.72
2023-06-29T06:54:10.806Z,100461.00
2023-06-29T06:56:37.337Z,100465.25
2023-06-29T06:59:04.351Z,100464.66
2023-06-29T07:01:30.956Z,100466.66
2023-06-29T07:03:57.593Z,100457.91
2023-06-29T07:06:24.141Z,100462.56
2023-06-29T07:08:51.926Z,100472.91
2023-06-29T07:11:18.590Z,100469.78
2023-06-29T07:13:45.054Z,100471.75
2023-06-29T07:16:11.561Z,100468.94
2023-06-29T07:18:38.079Z,100460.00
2023-06-29T07:26:04.960Z,100464.13
2023-06-29T07:28:31.431Z,100474.03
2023-06-29T07:30:57.894Z,100467.81
2023-06-29T07:33:24.406Z,100469.78
2023-06-29T07:35:51.075Z,100466.09
2023-06-29T07:38:17.626Z,100476.16
2023-06-29T07:40:44.615Z,100477.72
2023-06-29T07:43:13.426Z,100480.25
2023-06-29T07:45:39.924Z,100480.69
2023-06-29T07:48:06.652Z,100484.06
2023-06-29T07:50:33.217Z,100486.78
2023-06-29T07:52:59.770Z,100481.28
2023-06-29T07:55:26.564Z,100483.97
2023-06-29T08:00:23.862Z,100479.25
2023-06-29T08:02:50.397Z,100483.22
2023-06-29T08:07:46.623Z,100505.00
2023-06-29T08:10:13.233Z,100506.63
2023-06-29T08:12:39.738Z,100498.59
2023-06-29T08:15:06.978Z,100508.84
2023-06-29T08:17:34.790Z,100512.53
2023-06-29T08:20:01.245Z,100513.50
2023-06-29T08:22:27.814Z,100513.06
2023-06-29T08:24:54.407Z,100508.84
2023-06-29T08:27:20.887Z,100517.25
2023-06-29T08:29:47.476Z,100524.25
2023-06-29T08:32:14.257Z,100518.09
2023-06-29T08:34:42.094Z,100520.22
2023-06-29T08:37:08.566Z,100527.56
2023-06-29T08:39:35.206Z,100531.34
2023-06-29T08:42:04.971Z,100537.25
2023-06-29T08:44:33.538Z,100532.47
2023-06-29T08:47:02.627Z,100529.91
2023-06-29T08:49:29.917Z,100527.63
2023-06-29T08:52:00.056Z,100534.09
2023-06-29T08:54:28.966Z,100536.16
2023-06-29T08:56:56.864Z,100539.22
2023-06-29T08:59:24.271Z,100538.84
2023-06-29T09:01:52.141Z,100535.72
2023-06-29T09:04:18.647Z,100542.38
2023-06-29T09:06:45.166Z,100546.84
2023-06-29T09:09:13.045Z,100539.72
2023-06-29T09:11:40.794Z,100543.69
2023-06-29T09:14:08.827Z,100540.53
2023-06-29T09:16:35.617Z,100534.84
2023-06-29T09:19:03.388Z,100535.03
2023-06-29T09:21:29.911Z,100530.63
2023-06-29T09:23:57.183Z,100536.84
2023-06-29T09:26:28.046Z,100531.34
2023-06-29T09:28:58.265Z,100535.63
2023-06-29T09:31:26.016Z,100543.69
2023-06-29T09:33:52.759Z,100538.72
2023-06-29T09:36:25.210Z,100538.56
2023-06-29T09:38:51.701Z,100534.75
2023-06-29T09:41:18.364Z,100539.56
2023-06-29T09:43:46.335Z,100539.72
2023-06-29T09:46:12.785Z,100541.97
2023-06-29T09:51:19.489Z,100543.97
2023-06-29T09:53:46.446Z,100535.50
2023-06-29T09:56:13.906Z,100542.00
2023-06-29T09:58:41.250Z,100541.16
2023-06-29T10:01:09.340Z,100538.31
2023-06-29T10:03:36.010Z,100537.63
2023-06-29T10:06:13.212Z,100540.31
2023-06-29T10:08:41.312Z,100536.91
2023-06-29T10:11:07.830Z,100539.44
2023-06-29T10:13:38.491Z,100536.06
2023-06-29T10:16:10.168Z,100536.47
2023-06-29T10:18:41.915Z,100536.19
2023-06-29T10:21:09.113Z,100538.91
2023-06-29T10:23:36.129Z,100533.53
2023-06-29T10:26:05.620Z,100531.41
2023-06-29T10:28:34.357Z,100544.84
2023-06-29T10:31:01.067Z,100533.50
2023-06-29T10:33:29.068Z,100539.75
2023-06-29T10:35:57.312Z,100543.00
2023-06-29T10:38:31.256Z,100532.53
2023-06-29T10:40:57.951Z,100535.22
2023-06-29T10:43:26.367Z,100537.66
2023-06-29T10:45:52.856Z,100519.63
2023-06-29T10:48:38.329Z,100536.09
2023-06-29T10:51:10.841Z,100532.28
2023-06-29T10:53:40.061Z,100533.66
2023-06-29T10:56:26.476Z,100529.28
2023-06-29T10:58:54.172Z,100529.28
2023-06-29T11:01:20.954Z,100531.25
2023-06-29T11:03:47.624Z,100538.91
2023-06-29T11:06:28.515Z,100536.22
2023-06-29T11:09:01.762Z,100534.38
2023-06-29T11:11:29.373Z,100531.25
2023-06-29T11:13:56.668Z,100538.88
2023-06-29T11:16:23.246Z,100539.75
2023-06-29T11:18:49.872Z,100531.84
2023-06-29T11:21:20.131Z,100529.28
2023-06-29T11:23:50.323Z,100527.28
2023-06-29T11:26:16.927Z,100535.47
2023-06-29T11:28:43.520Z,100534.91
2023-06-29T11:31:10.058Z,100536.88
2023-06-29T11:33:47.546Z,100535.50
2023-06-29T11:36:14.049Z,100542.56
2023-06-29T11:38:42.074Z,100535.31
2023-06-29T11:41:09.629Z,100537.47
2023-06-29T11:43:36.326Z,100532.91
2023-06-29T11:46:03.449Z,100542.00
2023-06-29T11:48:29.938Z,100544.97
2023-06-29T11:50:59.908Z,100535.47
2023-06-29T11:53:26.567Z,100534.31
2023-06-29T11:55:55.334Z,100541.53
2023-06-29T11:58:21.972Z,100543.25
2023-06-29T12:00:55.502Z,100547.91
2023-06-29T12:03:22.141Z,100550.00
2023-06-29T12:08:15.920Z,100539.50
2023-06-29T12:10:42.581Z,100549.13
2023-06-29T12:13:11.745Z,100547.44
2023-06-29T12:15:38.437Z,100549.00
2023-06-29T12:18:11.818Z,100547.16
2023-06-29T12:20:40.556Z,100546.31
2023-06-29T12:23:07.887Z,100552.53
2023-06-29T12:25:43.085Z,100548.84
2023-06-29T12:28:09.715Z,100543.91
2023-06-29T12:30:37.792Z,100547.28
2023-06-29T12:33:04.312Z,100544.75
2023-06-29T12:35:30.807Z,100540.03
2023-06-29T12:37:57.317Z,100535.38
2023-06-29T12:40:23.826Z,100529.81
2023-06-29T12:42:50.284Z,100524.44
2023-06-29T12:45:16.842Z,100528.41
2023-06-29T12:47:44.764Z,100526.28
2023-06-29T12:50:11.682Z,100524.28
2023-06-29T12:52:38.389Z,100528.97
2023-06-29T12:55:05.338Z,100532.69
2023-06-29T12:57:31.800Z,100525.56
2023-06-29T13:00:00.357Z,100523.59
2023-06-29T13:02:27.593Z,100521.72
2023-06-29T13:04:55.563Z,100525.31
2023-06-29T13:07:22.160Z,100527.41
2023-06-29T13:09:49.100Z,100529.53
2023-06-29T13:12:16.064Z,100522.00
2023-06-29T13:14:43.161Z,100525.41
2023-06-29T13:17:10.124Z,100527.38
2023-06-29T13:19:36.669Z,100525.25
2023-06-29T13:22:04.850Z,100521.69
2023-06-29T13:24:32.467Z,100518.16
2023-06-29T13:26:59.379Z,100514.06
2023-06-29T13:29:25.974Z,100515.50
2023-06-29T13:31:52.533Z,100525.44
2023-06-29T13:34:19.020Z,100520.06
2023-06-29T13:36:45.472Z,100520.25
2023-06-29T13:39:13.242Z,100525.53
2023-06-29T13:41:41.198Z,100539.59
2023-06-29T13:44:08.907Z,100542.56
2023-06-29T13:46:36.143Z,100534.94
2023-06-29T13:49:04.019Z,100543.44
2023-06-29T13:51:32.845Z,100558.47
2023-06-29T13:54:01.444Z,100563.44
2023-06-29T13:56:29.934Z,100563.88
2023-06-29T13:58:56.525Z,100559.75
2023-06-29T14:01:23.014Z,100569.38
2023-06-29T14:03:49.664Z,100574.59
2023-06-29T14:06:16.541Z,100572.06
2023-06-29T14:08:43.010Z,100572.06
2023-06-29T14:11:09.484Z,100576.56
2023-06-29T14:13:37.266Z,100578.28
2023-06-29T14:16:03.879Z,100583.22
2023-06-29T14:18:30.448Z,100579.84
2023-06-29T14:20:57.132Z,100575.44
2023-06-29T14:23:24.632Z,100579.13
2023-06-29T14:25:51.154Z,100578.28
2023-06-29T14:28:17.863Z,100589.16
2023-06-29T14:30:45.884Z,100586.63
2023-06-29T14:33:27.684Z,100589.31
2023-06-29T14:35:55.100Z,100589.06
2023-06-29T14:38:21.655Z,100591.03
2023-06-29T14:40:48.153Z,100593.56
2023-06-29T14:43:14.665Z,100580.94
2023-06-29T14:45:41.752Z,100579.50
2023-06-29T14:48:09.720Z,100584.28
2023-06-29T14:50:36.250Z,100581.19
2023-06-29T14:53:03.145Z,100574.09
2023-06-29T14:55:30.003Z,100579.34
2023-06-29T14:57:56.651Z,100581.47
2023-06-29T15:00:23.169Z,100583.03
2023-06-29T15:02:49.757Z,100581.13
2023-06-29T15:05:17.621Z,100580.81
2023-06-29T15:07:44.248Z,100576.72
2023-06-29T15:10:11.183Z,100574.59
2023-06-29T15:12:37.677Z,100571.16
2023-06-29T15:15:04.752Z,100572.59
2023-06-29T15:17:31.276Z,100569.28
2023-06-29T15:19:57.729Z,100560.50
2023-06-29T15:22:25.599Z,100561.63
2023-06-29T15:24:52.784Z,100553.16
2023-06-29T15:27:19.296Z,100558.56
2023-06-29T15:29:45.823Z,100549.75
2023-06-29T15:32:12.262Z,100545.63
2023-06-29T15:34:38.862Z,100535.22
2023-06-29T15:37:05.636Z,100538.47
2023-06-29T15:39:33.418Z,100537.63
2023-06-29T15:41:59.861Z,100537.31
2023-06-29T15:44:26.388Z,100531.81
2023-06-29T15:46:54.659Z,100530.38
2023-06-29T15:49:21.601Z,100520.06
2023-06-29T15:51:48.607Z,100518.00
2023-06-29T15:54:15.332Z,100522.38
2023-06-29T15:56:43.351Z,100526.19
2023-06-29T15:59:10.491Z,100521.56
2023-06-29T16:01:37.009Z,100522.84
2023-06-29T16:04:04.172Z,100520.16
2023-06-29T16:06:32.276Z,100517.31
2023-06-29T16:08:59.467Z,100521.84
2023-06-29T16:11:26.112Z,100524.69
2023-06-29T16:13:55.728Z,100516.63
2023-06-29T16:16:22.360Z,100521.28
2023-06-29T16:18:48.853Z,100526.81
2023-06-29T16:21:15.398Z,100526.81
2023-06-29T16:23:41.847Z,100529.53
2023-06-29T16:26:08.361Z,100523.25
2023-06-29T16:28:35.081Z,100523.41
2023-06-29T16:31:03.195Z,100518.03
2023-06-29T16:33:29.746Z,100529.81
2023-06-29T16:35:56.221Z,100527.25
2023-06-29T16:38:22.838Z,100519.88
2023-06-29T16:40:49.717Z,100521.72
2023-06-29T16:43:16.226Z,100520.72
2023-06-29T16:45:43.089Z,100522.69
2023-06-29T16:48:11.181Z,100525.56
2023-06-29T16:50:37.767Z,100530.09
2023-06-29T16:53:04.286Z,100525.56
2023-06-29T16:55:30.802Z,100529.25
2023-06-29T16:57:57.332Z,100524.00
2023-06-29T17:00:24.013Z,100526.69
2023-06-29T17:02:50.539Z,100521.16
2023-06-29T17:05:18.430Z,100521.00
2023-06-29T17:07:44.862Z,100526.41
2023-06-29T17:10:11.519Z,100533.47
2023-06-29T17:12:38.003Z,100533.63
2023-06-29T17:15:05.281Z,100538.00
2023-06-29T17:17:31.887Z,100542.56
2023-06-29T17:19:58.450Z,100535.47
2023-06-29T17:22:26.256Z,100532.06
2023-06-29T17:24:53.073Z,100531.38
2023-06-29T17:27:19.567Z,100529.38
2023-06-29T17:29:47.879Z,100527.69
2023-06-29T17:32:14.415Z,100529.53
2023-06-29T17:34:40.911Z,100525.00
2023-06-29T17:37:07.936Z,100537.47
2023-06-29T17:39:35.825Z,100525.84
2023-06-29T17:42:02.681Z,100531.22
2023-06-29T17:44:29.406Z,100533.06
2023-06-29T17:46:55.904Z,100532.06
2023-06-29T17:49:22.425Z,100543.69
2023-06-29T17:51:48.896Z,100533.91
2023-06-29T17:54:15.466Z,100534.75
2023-06-29T17:56:43.285Z,100527.53
2023-06-29T17:59:09.774Z,100532.91
2023-06-29T18:01:36.627Z,100537.34
2023-06-29T18:04:03.509Z,100532.91
2023-06-29T18:06:30.237Z,100525.84
2023-06-29T18:08:56.690Z,100532.06
2023-06-29T18:11:23.185Z,100540.16
2023-06-29T18:13:51.134Z,100536.63
2023-06-29T18:16:17.780Z,100544.56
2023-06-29T18:18:44.307Z,100532.91
2023-06-29T18:21:10.819Z,100537.47
2023-06-29T18:23:37.349Z,100540.03
2023-06-29T18:26:03.838Z,100536.63
2023-06-29T18:28:30.323Z,100539.19
2023-06-29T18:30:58.175Z,100540.03
2023-06-29T18:33:24.666Z,100547.25
2023-06-29T18:35:51.622Z,100541.00
2023-06-29T18:38:18.195Z,100547.38
2023-06-29T18:40:44.668Z,100545.69
2023-06-29T18:43:11.232Z,100546.53
2023-06-29T18:45:37.906Z,100545.81
2023-06-29T18:48:06.090Z,100545.81
2023-06-29T18:50:32.685Z,100547.53
2023-06-29T18:52:59.196Z,100544.84
2023-06-29T18:55:25.690Z,100559.28
2023-06-29T18:57:52.288Z,100556.59
2023-06-29T19:00:19.221Z,100557.47
2023-06-29T19:02:45.794Z,100568.38
2023-06-29T19:05:13.717Z,100562.13
2023-06-29T19:07:40.280Z,100558.59
2023-06-29T19:10:07.295Z,100571.34
2023-06-29T19:12:33.804Z,100573.34
2023-06-29T19:15:00.371Z,100573.47
2023-06-29T19:17:27.119Z,100583.41
2023-06-29T19:19:53.674Z,100575.47
2023-06-29T19:22:21.475Z,100579.31
2023-06-29T19:24:47.915Z,100575.47
2023-06-29T19:27:14.475Z,100585.41
2023-06-29T19:29:41.057Z,100587.09
2023-06-29T19:32:08.486Z,100586.09
2023-06-29T19:34:35.077Z,100589.63
2023-06-29T19:37:01.556Z,100591.47
2023-06-29T19:39:29.419Z,100591.47
2023-06-29T19:41:55.857Z,100595.19
2023-06-29T19:44:22.339Z,100589.06
2023-06-29T19:46:48.946Z,100595.31
2023-06-29T19:49:15.555Z,100598.16
2023-06-29T19:51:42.022Z,100600.00
2023-06-29T19:54:08.658Z,100605.50
2023-06-29T19:56:36.499Z,100605.50
2023-06-29T19:59:03.042Z,100609.91
2023-06-29T20:01:29.485Z,100615.31
2023-06-29T20:03:56.019Z,100618.13
2023-06-29T20:06:22.554Z,100613.59
2023-06-29T20:08:48.990Z,100619.13
2023-06-29T20:11:15.622Z,100633.59
2023-06-29T20:13:43.508Z,100630.00
2023-06-29T20:16:10.042Z,100621.94
2023-06-29T20:18:36.491Z,100631.00
2023-06-29T20:21:03.183Z,100631.00
2023-06-29T20:23:29.716Z,100630.16
2023-06-29T20:25:56.192Z,100636.69
2023-06-29T20:28:22.681Z,100639.38
2023-06-29T20:30:50.501Z,100636.69
2023-06-29T20:33:16.921Z,100646.59
2023-06-29T20:35:43.588Z,100644.91
2023-06-29T20:38:10.248Z,100644.06
2023-06-29T20:40:36.790Z,100647.72
2023-06-29T20:43:03.333Z,100641.50
2023-06-29T20:45:29.820Z,100650.41
2023-06-29T20:47:57.622Z,100657.66
2023-06-29T20:50:24.178Z,100651.41
2023-06-29T20:52:50.825Z,100650.56
2023-06-29T20:55:17.358Z,100649.72
2023-06-29T20:57:43.857Z,100654.25
2023-06-29T21:00:11.551Z,100657.03
2023-06-29T21:02:38.256Z,100662.44
2023-06-29T21:05:07.037Z,100661.75
2023-06-29T21:07:33.777Z,100656.34
2023-06-29T21:10:00.455Z,100652.81
2023-06-29T21:12:27.173Z,100657.31
2023-06-29T21:14:54.152Z,100660.00
2023-06-29T21:17:21.170Z,100659.31
2023-06-29T21:19:48.036Z,100654.78
2023-06-29T21:22:18.175Z,100654.78
2023-06-29T21:24:45.650Z,100654.78
2023-06-29T21:27:15.001Z,100655.91
2023-06-29T21:29:45.004Z,100655.91
2023-06-29T21:32:12.556Z,100655.91
2023-06-29T21:34:39.532Z,100654.22
2023-06-29T21:37:07.332Z,100655.91
2023-06-29T21:39:35.169Z,100652.50
2023-06-29T21:42:01.782Z,100651.66
2023-06-29T21:44:28.281Z,100657.06
2023-06-29T21:46:55.001Z,100650.78
2023-06-29T21:49:21.886Z,100659.75
2023-06-29T21:51:48.539Z,100654.47
2023-06-29T21:54:15.347Z,100655.34
2023-06-29T21:56:43.424Z,100660.72
2023-06-29T21:59:09.951Z,100656.44
2023-06-29T22:01:36.860Z,100659.13
2023-06-29T22:04:03.641Z,100657.44
2023-06-29T22:06:30.319Z,100652.91
2023-06-29T22:08:57.153Z,100653.91
2023-06-29T22:11:24.484Z,100659.28
2023-06-29T22:13:52.281Z,100655.75
2023-06-29T22:16:19.003Z,100668.22
2023-06-29T22:18:45.771Z,100662.13
2023-06-29T22:21:12.326Z,100667.53
2023-06-29T22:23:38.831Z,100663.94
2023-06-29T22:26:05.366Z,100668.50
2023-06-29T22:28:32.070Z,100668.50
2023-06-29T22:30:59.922Z,100660.41
2023-06-29T22:33:26.537Z,100660.69
2023-06-29T22:35:53.185Z,100666.06
2023-06-29T22:38:19.700Z,100657.03
2023-06-29T22:40:46.283Z,100665.22
2023-06-29T22:43:12.864Z,100664.38
2023-06-29T22:45:39.398Z,100671.59
2023-06-29T22:48:07.529Z,100671.75
2023-06-29T22:50:34.477Z,100663.69
2023-06-29T22:53:01.003Z,100667.22
2023-06-29T22:55:27.714Z,100664.66
2023-06-29T22:57:54.229Z,100669.19
2023-06-29T23:00:20.970Z,100669.19
2023-06-29T23:02:47.626Z,100671.03
2023-06-29T23:05:15.905Z,100671.03
2023-06-29T23:07:42.810Z,100661.25
2023-06-29T23:10:09.980Z,100668.34
2023-06-29T23:12:36.528Z,100670.31
2023-06-29T23:15:03.256Z,100670.31
2023-06-29T23:17:29.883Z,100668.59
2023-06-29T23:19:56.419Z,100668.59
2023-06-29T23:22:24.502Z,100665.06
2023-06-29T23:24:51.037Z,100673.28
2023-06-29T23:27:17.557Z,100666.19
2023-06-29T23:29:44.122Z,100669.72
2023-06-29T23:32:11.146Z,100665.22
2023-06-29T23:34:37.684Z,100667.19
2023-06-29T23:37:04.589Z,100659.28
2023-06-29T23:39:32.394Z,100665.34
2023-06-29T23:41:58.968Z,100662.66
2023-06-29T23:44:25.495Z,100668.19
2023-06-29T23:46:52.060Z,100665.34
2023-06-29T23:49:20.053Z,100658.38
2023-06-29T23:51:46.845Z,100664.78
2023-06-29T23:54:13.863Z,100667.47
2023-06-29T23:56:42.882Z,100664.91
2023-06-29T23:59:10.126Z,100663.06
